Portada
METAR-TAF:

METAR-TAF

Aeroports :

Franklin County, Vermont, Estats Units d'Amèrica

latitud: 44-56-25N, longitud: 073-05-51W, altitud: 69 m

Observació

L'informe es va fer fa 14 hores i 1 minuts, a les 14:16 UTC
Vent 4 kt del Sud-Oest
Temperatura 25°C
Humitat 65%
Pressió 1016 hPa
Visibilitat: 16.1 km

METAR: KFSO 261416Z AUTO 23004KT 10SM 25/18 A3000 RMK AO2 T02520177

Hora: 00:17 (04:17 UTC)


TAF: manca

Observacions i pronòstics meteorològics de més de 4000 aeroports (METAR i TAF).

Les estacions disponibles són els punts grocs i vermells al mapa.

Posi el ratolí al punt desitjat per veure el nom de l'estació.

Feu clic per veure les observacions i els pronòstics meteorològics.

Per canviar el mapa: feu clic els botons verds amb una creu de color negre per apropar; al botó verd amb un guió per allunyar la imatge; o en les fletxes verdes per a mapes adjacents.


METAR-TAF: